sensor_id;sensor_type;location;lat;lon;timestamp;P1;durP1;ratioP1;P2;durP2;ratioP2
12425;SDS011;6277;49.824;9.562;2023-11-19T00:00:49;3.95;;;2.08;;
12425;SDS011;6277;49.824;9.562;2023-11-19T00:03:16;2.20;;;2.00;;
12425;SDS011;6277;49.824;9.562;2023-11-19T00:05:42;3.00;;;1.98;;
12425;SDS011;6277;49.824;9.562;2023-11-19T00:08:09;3.13;;;2.17;;
12425;SDS011;6277;49.824;9.562;2023-11-19T00:10:35;2.40;;;1.90;;
12425;SDS011;6277;49.824;9.562;2023-11-19T00:13:00;2.83;;;2.08;;
12425;SDS011;6277;49.824;9.562;2023-11-19T00:15:27;2.58;;;2.05;;
12425;SDS011;6277;49.824;9.562;2023-11-19T00:17:53;2.63;;;2.20;;
12425;SDS011;6277;49.824;9.562;2023-11-19T00:20:19;2.88;;;2.25;;
12425;SDS011;6277;49.824;9.562;2023-11-19T00:22:48;2.10;;;1.90;;
12425;SDS011;6277;49.824;9.562;2023-11-19T00:25:16;2.85;;;2.25;;
12425;SDS011;6277;49.824;9.562;2023-11-19T00:27:42;2.33;;;1.90;;
12425;SDS011;6277;49.824;9.562;2023-11-19T00:30:10;3.33;;;2.05;;
12425;SDS011;6277;49.824;9.562;2023-11-19T00:32:36;2.00;;;1.80;;
12425;SDS011;6277;49.824;9.562;2023-11-19T00:35:03;2.47;;;2.20;;
12425;SDS011;6277;49.824;9.562;2023-11-19T00:37:29;2.30;;;2.08;;
12425;SDS011;6277;49.824;9.562;2023-11-19T00:39:55;2.63;;;2.00;;
12425;SDS011;6277;49.824;9.562;2023-11-19T00:42:21;2.45;;;2.20;;
12425;SDS011;6277;49.824;9.562;2023-11-19T00:44:48;3.85;;;2.33;;
12425;SDS011;6277;49.824;9.562;2023-11-19T00:47:13;2.90;;;2.47;;
12425;SDS011;6277;49.824;9.562;2023-11-19T00:49:39;3.15;;;2.13;;
12425;SDS011;6277;49.824;9.562;2023-11-19T00:52:05;2.55;;;2.15;;
12425;SDS011;6277;49.824;9.562;2023-11-19T00:54:31;2.85;;;2.38;;
12425;SDS011;6277;49.824;9.562;2023-11-19T00:56:57;2.97;;;1.88;;
12425;SDS011;6277;49.824;9.562;2023-11-19T00:59:22;3.95;;;2.42;;
12425;SDS011;6277;49.824;9.562;2023-11-19T01:01:48;2.42;;;2.20;;
12425;SDS011;6277;49.824;9.562;2023-11-19T01:04:14;3.10;;;2.35;;
12425;SDS011;6277;49.824;9.562;2023-11-19T01:06:40;3.25;;;2.58;;
12425;SDS011;6277;49.824;9.562;2023-11-19T01:09:07;2.58;;;2.20;;
12425;SDS011;6277;49.824;9.562;2023-11-19T01:11:34;2.95;;;2.63;;
12425;SDS011;6277;49.824;9.562;2023-11-19T01:14:00;4.60;;;2.65;;
12425;SDS011;6277;49.824;9.562;2023-11-19T01:16:25;2.65;;;2.10;;
12425;SDS011;6277;49.824;9.562;2023-11-19T01:18:51;3.30;;;2.50;;
12425;SDS011;6277;49.824;9.562;2023-11-19T01:21:17;2.85;;;2.47;;
12425;SDS011;6277;49.824;9.562;2023-11-19T01:23:43;2.97;;;2.60;;
12425;SDS011;6277;49.824;9.562;2023-11-19T01:26:09;3.78;;;2.75;;
12425;SDS011;6277;49.824;9.562;2023-11-19T01:28:36;3.53;;;2.40;;
12425;SDS011;6277;49.824;9.562;2023-11-19T01:31:01;2.72;;;2.45;;
12425;SDS011;6277;49.824;9.562;2023-11-19T01:33:28;2.95;;;2.65;;
12425;SDS011;6277;49.824;9.562;2023-11-19T01:35:54;3.00;;;2.50;;
12425;SDS011;6277;49.824;9.562;2023-11-19T01:38:21;2.95;;;2.53;;
12425;SDS011;6277;49.824;9.562;2023-11-19T01:40:46;2.88;;;2.50;;
12425;SDS011;6277;49.824;9.562;2023-11-19T01:43:12;3.25;;;2.20;;
12425;SDS011;6277;49.824;9.562;2023-11-19T01:45:38;2.85;;;2.55;;
12425;SDS011;6277;49.824;9.562;2023-11-19T01:48:05;2.90;;;2.30;;
12425;SDS011;6277;49.824;9.562;2023-11-19T01:50:31;3.05;;;1.92;;
12425;SDS011;6277;49.824;9.562;2023-11-19T01:52:58;1.70;;;1.58;;
12425;SDS011;6277;49.824;9.562;2023-11-19T01:55:24;2.83;;;1.90;;
12425;SDS011;6277;49.824;9.562;2023-11-19T01:57:51;3.08;;;1.95;;
12425;SDS011;6277;49.824;9.562;2023-11-19T02:00:20;2.40;;;2.03;;
12425;SDS011;6277;49.824;9.562;2023-11-19T02:02:46;2.58;;;1.92;;
12425;SDS011;6277;49.824;9.562;2023-11-19T02:05:13;2.83;;;2.10;;
12425;SDS011;6277;49.824;9.562;2023-11-19T02:07:39;2.50;;;2.28;;
12425;SDS011;6277;49.824;9.562;2023-11-19T02:10:05;2.85;;;2.22;;
12425;SDS011;6277;49.824;9.562;2023-11-19T02:12:37;3.03;;;2.28;;
12425;SDS011;6277;49.824;9.562;2023-11-19T02:15:03;2.20;;;1.95;;
12425;SDS011;6277;49.824;9.562;2023-11-19T02:17:29;2.72;;;1.88;;
12425;SDS011;6277;49.824;9.562;2023-11-19T02:19:59;2.83;;;2.15;;
12425;SDS011;6277;49.824;9.562;2023-11-19T02:22:25;2.20;;;2.00;;
12425;SDS011;6277;49.824;9.562;2023-11-19T02:24:51;2.35;;;2.00;;
12425;SDS011;6277;49.824;9.562;2023-11-19T02:30:22;1.48;;;1.10;;
12425;SDS011;6277;49.824;9.562;2023-11-19T02:32:58;1.30;;;1.00;;
12425;SDS011;6277;49.824;9.562;2023-11-19T02:35:27;1.88;;;1.20;;
12425;SDS011;6277;49.824;9.562;2023-11-19T02:37:54;1.63;;;1.27;;
12425;SDS011;6277;49.824;9.562;2023-11-19T02:40:19;1.60;;;1.40;;
12425;SDS011;6277;49.824;9.562;2023-11-19T02:42:49;1.33;;;1.23;;
12425;SDS011;6277;49.824;9.562;2023-11-19T02:45:14;3.45;;;1.30;;
12425;SDS011;6277;49.824;9.562;2023-11-19T02:47:40;3.03;;;1.30;;
12425;SDS011;6277;49.824;9.562;2023-11-19T02:50:09;1.58;;;1.23;;
12425;SDS011;6277;49.824;9.562;2023-11-19T02:52:42;2.05;;;1.55;;
12425;SDS011;6277;49.824;9.562;2023-11-19T02:55:10;1.73;;;1.25;;
12425;SDS011;6277;49.824;9.562;2023-11-19T02:57:40;2.55;;;1.80;;
12425;SDS011;6277;49.824;9.562;2023-11-19T03:00:18;4.65;;;2.15;;
12425;SDS011;6277;49.824;9.562;2023-11-19T03:02:48;3.55;;;2.17;;
12425;SDS011;6277;49.824;9.562;2023-11-19T03:05:23;2.63;;;1.90;;
12425;SDS011;6277;49.824;9.562;2023-11-19T03:07:49;3.03;;;1.83;;
12425;SDS011;6277;49.824;9.562;2023-11-19T03:10:14;2.00;;;1.35;;
12425;SDS011;6277;49.824;9.562;2023-11-19T03:12:40;2.63;;;1.40;;
12425;SDS011;6277;49.824;9.562;2023-11-19T03:15:06;1.83;;;1.20;;
12425;SDS011;6277;49.824;9.562;2023-11-19T03:17:34;2.58;;;1.45;;
12425;SDS011;6277;49.824;9.562;2023-11-19T03:20:07;2.63;;;1.67;;
12425;SDS011;6277;49.824;9.562;2023-11-19T03:22:39;3.15;;;1.98;;
12425;SDS011;6277;49.824;9.562;2023-11-19T03:25:06;2.38;;;1.50;;
12425;SDS011;6277;49.824;9.562;2023-11-19T03:27:36;1.60;;;1.30;;
12425;SDS011;6277;49.824;9.562;2023-11-19T03:30:03;1.60;;;1.50;;
12425;SDS011;6277;49.824;9.562;2023-11-19T03:32:34;1.38;;;1.27;;
12425;SDS011;6277;49.824;9.562;2023-11-19T03:35:00;1.10;;;1.00;;
12425;SDS011;6277;49.824;9.562;2023-11-19T03:37:29;1.48;;;0.93;;
12425;SDS011;6277;49.824;9.562;2023-11-19T03:39:56;1.35;;;1.10;;
12425;SDS011;6277;49.824;9.562;2023-11-19T03:42:24;1.38;;;1.20;;
12425;SDS011;6277;49.824;9.562;2023-11-19T03:44:53;1.20;;;1.02;;
12425;SDS011;6277;49.824;9.562;2023-11-19T03:47:19;1.08;;;0.90;;
12425;SDS011;6277;49.824;9.562;2023-11-19T03:49:48;2.70;;;1.10;;
12425;SDS011;6277;49.824;9.562;2023-11-19T03:52:14;1.35;;;0.90;;
12425;SDS011;6277;49.824;9.562;2023-11-19T03:54:40;0.82;;;0.75;;
12425;SDS011;6277;49.824;9.562;2023-11-19T03:57:05;1.02;;;0.82;;
12425;SDS011;6277;49.824;9.562;2023-11-19T03:59:31;0.98;;;0.80;;
12425;SDS011;6277;49.824;9.562;2023-11-19T04:01:56;1.52;;;0.82;;
12425;SDS011;6277;49.824;9.562;2023-11-19T04:04:25;0.52;;;0.40;;
12425;SDS011;6277;49.824;9.562;2023-11-19T04:06:52;0.70;;;0.50;;
12425;SDS011;6277;49.824;9.562;2023-11-19T04:09:18;0.98;;;0.40;;
12425;SDS011;6277;49.824;9.562;2023-11-19T04:11:43;0.30;;;0.20;;
12425;SDS011;6277;49.824;9.562;2023-11-19T04:14:11;0.20;;;0.20;;
12425;SDS011;6277;49.824;9.562;2023-11-19T04:16:38;0.20;;;0.20;;
12425;SDS011;6277;49.824;9.562;2023-11-19T04:19:04;0.50;;;0.30;;
12425;SDS011;6277;49.824;9.562;2023-11-19T04:21:29;0.30;;;0.20;;
12425;SDS011;6277;49.824;9.562;2023-11-19T04:23:55;0.40;;;0.30;;
12425;SDS011;6277;49.824;9.562;2023-11-19T04:26:21;0.43;;;0.20;;
12425;SDS011;6277;49.824;9.562;2023-11-19T04:28:47;0.22;;;0.10;;
12425;SDS011;6277;49.824;9.562;2023-11-19T04:31:14;0.43;;;0.20;;
12425;SDS011;6277;49.824;9.562;2023-11-19T04:33:42;0.20;;;0.20;;
12425;SDS011;6277;49.824;9.562;2023-11-19T04:36:09;0.30;;;0.30;;
12425;SDS011;6277;49.824;9.562;2023-11-19T04:38:35;0.10;;;0.10;;
12425;SDS011;6277;49.824;9.562;2023-11-19T04:41:00;0.17;;;0.17;;
12425;SDS011;6277;49.824;9.562;2023-11-19T04:43:26;0.17;;;0.15;;
12425;SDS011;6277;49.824;9.562;2023-11-19T04:45:52;0.30;;;0.22;;
12425;SDS011;6277;49.824;9.562;2023-11-19T04:48:17;0.30;;;0.20;;
12425;SDS011;6277;49.824;9.562;2023-11-19T04:50:43;0.20;;;0.20;;
12425;SDS011;6277;49.824;9.562;2023-11-19T04:53:08;0.20;;;0.20;;
12425;SDS011;6277;49.824;9.562;2023-11-19T04:55:34;1.27;;;0.20;;
12425;SDS011;6277;49.824;9.562;2023-11-19T04:57:59;0.60;;;0.15;;
12425;SDS011;6277;49.824;9.562;2023-11-19T05:00:25;0.30;;;0.20;;
12425;SDS011;6277;49.824;9.562;2023-11-19T05:02:51;0.20;;;0.10;;
12425;SDS011;6277;49.824;9.562;2023-11-19T05:05:16;0.30;;;0.10;;
12425;SDS011;6277;49.824;9.562;2023-11-19T05:07:42;0.10;;;0.10;;
12425;SDS011;6277;49.824;9.562;2023-11-19T05:10:08;0.43;;;0.10;;
12425;SDS011;6277;49.824;9.562;2023-11-19T05:12:34;0.03;;;0.03;;
12425;SDS011;6277;49.824;9.562;2023-11-19T05:14:59;0.13;;;0.10;;
12425;SDS011;6277;49.824;9.562;2023-11-19T05:17:25;0.20;;;0.10;;
12425;SDS011;6277;49.824;9.562;2023-11-19T05:19:51;0.10;;;0.10;;
12425;SDS011;6277;49.824;9.562;2023-11-19T05:22:17;0.30;;;0.10;;
12425;SDS011;6277;49.824;9.562;2023-11-19T05:24:42;0.00;;;0.00;;
12425;SDS011;6277;49.824;9.562;2023-11-19T05:27:08;0.00;;;0.00;;
12425;SDS011;6277;49.824;9.562;2023-11-19T05:29:33;0.00;;;0.00;;
12425;SDS011;6277;49.824;9.562;2023-11-19T05:31:59;0.00;;;0.00;;
12425;SDS011;6277;49.824;9.562;2023-11-19T05:34:25;0.40;;;0.00;;
12425;SDS011;6277;49.824;9.562;2023-11-19T05:36:51;0.38;;;0.00;;
12425;SDS011;6277;49.824;9.562;2023-11-19T05:39:16;0.08;;;0.00;;
12425;SDS011;6277;49.824;9.562;2023-11-19T05:41:43;0.00;;;0.00;;
12425;SDS011;6277;49.824;9.562;2023-11-19T05:44:09;0.10;;;0.00;;
12425;SDS011;6277;49.824;9.562;2023-11-19T05:46:34;0.10;;;0.00;;
12425;SDS011;6277;49.824;9.562;2023-11-19T05:49:05;0.00;;;0.00;;
12425;SDS011;6277;49.824;9.562;2023-11-19T05:51:31;0.10;;;0.10;;
12425;SDS011;6277;49.824;9.562;2023-11-19T05:53:56;0.10;;;0.10;;
12425;SDS011;6277;49.824;9.562;2023-11-19T05:56:22;0.00;;;0.00;;
12425;SDS011;6277;49.824;9.562;2023-11-19T05:58:48;0.85;;;0.10;;
12425;SDS011;6277;49.824;9.562;2023-11-19T06:01:14;0.73;;;0.05;;
12425;SDS011;6277;49.824;9.562;2023-11-19T06:03:40;0.30;;;0.10;;
12425;SDS011;6277;49.824;9.562;2023-11-19T06:06:06;0.43;;;0.20;;
12425;SDS011;6277;49.824;9.562;2023-11-19T06:08:31;0.22;;;0.10;;
12425;SDS011;6277;49.824;9.562;2023-11-19T06:10:57;0.40;;;0.28;;
12425;SDS011;6277;49.824;9.562;2023-11-19T06:13:23;0.47;;;0.20;;
12425;SDS011;6277;49.824;9.562;2023-11-19T06:15:50;0.30;;;0.20;;
12425;SDS011;6277;49.824;9.562;2023-11-19T06:18:15;0.10;;;0.10;;
12425;SDS011;6277;49.824;9.562;2023-11-19T06:20:41;0.13;;;0.10;;
12425;SDS011;6277;49.824;9.562;2023-11-19T06:23:07;0.28;;;0.20;;
12425;SDS011;6277;49.824;9.562;2023-11-19T06:25:32;0.93;;;0.20;;
12425;SDS011;6277;49.824;9.562;2023-11-19T06:28:00;0.20;;;0.20;;
12425;SDS011;6277;49.824;9.562;2023-11-19T06:30:25;0.22;;;0.22;;
12425;SDS011;6277;49.824;9.562;2023-11-19T06:32:53;0.40;;;0.22;;
12425;SDS011;6277;49.824;9.562;2023-11-19T06:35:18;0.28;;;0.28;;
12425;SDS011;6277;49.824;9.562;2023-11-19T06:37:44;0.30;;;0.28;;
12425;SDS011;6277;49.824;9.562;2023-11-19T06:40:10;0.55;;;0.30;;
12425;SDS011;6277;49.824;9.562;2023-11-19T06:42:37;0.52;;;0.30;;
12425;SDS011;6277;49.824;9.562;2023-11-19T06:45:03;0.30;;;0.30;;
12425;SDS011;6277;49.824;9.562;2023-11-19T06:47:29;0.28;;;0.28;;
12425;SDS011;6277;49.824;9.562;2023-11-19T06:49:55;0.20;;;0.20;;
12425;SDS011;6277;49.824;9.562;2023-11-19T06:52:21;0.95;;;0.20;;
12425;SDS011;6277;49.824;9.562;2023-11-19T06:54:47;0.25;;;0.20;;
12425;SDS011;6277;49.824;9.562;2023-11-19T06:57:12;0.30;;;0.20;;
12425;SDS011;6277;49.824;9.562;2023-11-19T06:59:38;0.40;;;0.30;;
12425;SDS011;6277;49.824;9.562;2023-11-19T07:02:04;0.20;;;0.20;;
12425;SDS011;6277;49.824;9.562;2023-11-19T07:04:31;0.22;;;0.20;;
12425;SDS011;6277;49.824;9.562;2023-11-19T07:06:58;0.10;;;0.10;;
12425;SDS011;6277;49.824;9.562;2023-11-19T07:09:24;0.10;;;0.10;;
12425;SDS011;6277;49.824;9.562;2023-11-19T07:11:50;0.10;;;0.10;;
12425;SDS011;6277;49.824;9.562;2023-11-19T07:14:17;0.10;;;0.10;;
12425;SDS011;6277;49.824;9.562;2023-11-19T07:16:43;0.40;;;0.10;;
12425;SDS011;6277;49.824;9.562;2023-11-19T07:19:10;0.10;;;0.10;;
12425;SDS011;6277;49.824;9.562;2023-11-19T07:21:36;0.10;;;0.10;;
12425;SDS011;6277;49.824;9.562;2023-11-19T07:24:08;0.10;;;0.10;;
12425;SDS011;6277;49.824;9.562;2023-11-19T07:26:35;0.13;;;0.13;;
12425;SDS011;6277;49.824;9.562;2023-11-19T07:29:05;0.10;;;0.10;;
12425;SDS011;6277;49.824;9.562;2023-11-19T07:31:32;0.10;;;0.10;;
12425;SDS011;6277;49.824;9.562;2023-11-19T07:33:58;0.00;;;0.00;;
12425;SDS011;6277;49.824;9.562;2023-11-19T07:36:23;0.10;;;0.10;;
12425;SDS011;6277;49.824;9.562;2023-11-19T07:38:49;0.10;;;0.10;;
12425;SDS011;6277;49.824;9.562;2023-11-19T07:41:15;0.00;;;0.00;;
12425;SDS011;6277;49.824;9.562;2023-11-19T07:43:42;1.52;;;0.10;;
12425;SDS011;6277;49.824;9.562;2023-11-19T07:46:12;0.00;;;0.00;;
12425;SDS011;6277;49.824;9.562;2023-11-19T07:48:41;0.00;;;0.00;;
12425;SDS011;6277;49.824;9.562;2023-11-19T07:51:07;0.45;;;0.10;;
12425;SDS011;6277;49.824;9.562;2023-11-19T07:53:32;0.10;;;0.10;;
12425;SDS011;6277;49.824;9.562;2023-11-19T07:55:58;0.20;;;0.10;;
12425;SDS011;6277;49.824;9.562;2023-11-19T07:58:27;0.10;;;0.00;;
12425;SDS011;6277;49.824;9.562;2023-11-19T08:00:52;0.00;;;0.00;;
12425;SDS011;6277;49.824;9.562;2023-11-19T08:03:18;0.25;;;0.10;;
12425;SDS011;6277;49.824;9.562;2023-11-19T08:05:44;0.10;;;0.10;;
12425;SDS011;6277;49.824;9.562;2023-11-19T08:08:10;0.10;;;0.10;;
12425;SDS011;6277;49.824;9.562;2023-11-19T08:10:35;0.10;;;0.10;;
12425;SDS011;6277;49.824;9.562;2023-11-19T08:13:01;0.20;;;0.10;;
12425;SDS011;6277;49.824;9.562;2023-11-19T08:15:26;0.35;;;0.22;;
12425;SDS011;6277;49.824;9.562;2023-11-19T08:17:52;0.30;;;0.30;;
12425;SDS011;6277;49.824;9.562;2023-11-19T08:20:18;0.73;;;0.50;;
12425;SDS011;6277;49.824;9.562;2023-11-19T08:22:43;0.55;;;0.35;;
12425;SDS011;6277;49.824;9.562;2023-11-19T08:25:09;1.75;;;0.40;;
12425;SDS011;6277;49.824;9.562;2023-11-19T08:27:35;1.40;;;0.50;;
12425;SDS011;6277;49.824;9.562;2023-11-19T08:30:00;1.05;;;0.35;;
12425;SDS011;6277;49.824;9.562;2023-11-19T08:32:26;0.55;;;0.38;;
12425;SDS011;6277;49.824;9.562;2023-11-19T08:34:52;1.45;;;0.68;;
12425;SDS011;6277;49.824;9.562;2023-11-19T08:37:19;0.77;;;0.57;;
12425;SDS011;6277;49.824;9.562;2023-11-19T08:39:49;0.90;;;0.52;;
12425;SDS011;6277;49.824;9.562;2023-11-19T08:42:18;0.90;;;0.70;;
12425;SDS011;6277;49.824;9.562;2023-11-19T08:44:44;1.55;;;0.50;;
12425;SDS011;6277;49.824;9.562;2023-11-19T08:47:15;1.75;;;0.60;;
12425;SDS011;6277;49.824;9.562;2023-11-19T08:49:43;1.20;;;0.55;;
12425;SDS011;6277;49.824;9.562;2023-11-19T08:52:09;0.80;;;0.50;;
12425;SDS011;6277;49.824;9.562;2023-11-19T08:54:35;0.95;;;0.45;;
12425;SDS011;6277;49.824;9.562;2023-11-19T08:57:01;1.08;;;0.55;;
12425;SDS011;6277;49.824;9.562;2023-11-19T08:59:28;2.28;;;0.70;;
12425;SDS011;6277;49.824;9.562;2023-11-19T09:01:54;0.82;;;0.40;;
12425;SDS011;6277;49.824;9.562;2023-11-19T09:04:19;0.85;;;0.50;;
12425;SDS011;6277;49.824;9.562;2023-11-19T09:06:47;0.57;;;0.40;;
12425;SDS011;6277;49.824;9.562;2023-11-19T09:09:13;0.95;;;0.50;;
12425;SDS011;6277;49.824;9.562;2023-11-19T09:11:39;2.00;;;0.70;;
12425;SDS011;6277;49.824;9.562;2023-11-19T09:14:04;3.13;;;0.73;;
12425;SDS011;6277;49.824;9.562;2023-11-19T09:16:30;1.02;;;0.43;;
12425;SDS011;6277;49.824;9.562;2023-11-19T09:18:55;1.20;;;0.40;;
12425;SDS011;6277;49.824;9.562;2023-11-19T09:21:22;1.05;;;0.60;;
12425;SDS011;6277;49.824;9.562;2023-11-19T09:23:48;1.63;;;0.70;;
12425;SDS011;6277;49.824;9.562;2023-11-19T09:26:14;1.45;;;0.60;;
12425;SDS011;6277;49.824;9.562;2023-11-19T09:28:39;2.05;;;0.63;;
12425;SDS011;6277;49.824;9.562;2023-11-19T09:31:17;1.42;;;0.60;;
12425;SDS011;6277;49.824;9.562;2023-11-19T09:33:44;2.28;;;0.88;;
12425;SDS011;6277;49.824;9.562;2023-11-19T09:36:11;1.10;;;0.50;;
12425;SDS011;6277;49.824;9.562;2023-11-19T09:38:38;2.85;;;0.70;;
12425;SDS011;6277;49.824;9.562;2023-11-19T09:41:05;1.75;;;0.60;;
12425;SDS011;6277;49.824;9.562;2023-11-19T09:43:34;1.83;;;0.60;;
12425;SDS011;6277;49.824;9.562;2023-11-19T09:46:07;1.85;;;0.77;;
12425;SDS011;6277;49.824;9.562;2023-11-19T09:48:38;1.95;;;0.55;;
12425;SDS011;6277;49.824;9.562;2023-11-19T09:51:05;1.30;;;0.60;;
12425;SDS011;6277;49.824;9.562;2023-11-19T09:53:31;2.70;;;0.70;;
12425;SDS011;6277;49.824;9.562;2023-11-19T09:55:58;1.33;;;0.68;;
12425;SDS011;6277;49.824;9.562;2023-11-19T09:58:25;2.00;;;0.85;;
12425;SDS011;6277;49.824;9.562;2023-11-19T10:00:51;2.95;;;0.65;;
12425;SDS011;6277;49.824;9.562;2023-11-19T10:03:17;1.08;;;0.50;;
12425;SDS011;6277;49.824;9.562;2023-11-19T10:05:43;2.67;;;0.43;;
12425;SDS011;6277;49.824;9.562;2023-11-19T10:08:08;0.70;;;0.45;;
12425;SDS011;6277;49.824;9.562;2023-11-19T10:10:36;1.73;;;0.50;;
12425;SDS011;6277;49.824;9.562;2023-11-19T10:13:02;2.55;;;0.60;;
12425;SDS011;6277;49.824;9.562;2023-11-19T10:15:28;1.23;;;0.50;;
12425;SDS011;6277;49.824;9.562;2023-11-19T10:18:01;2.92;;;0.60;;
12425;SDS011;6277;49.824;9.562;2023-11-19T10:20:27;0.73;;;0.60;;
12425;SDS011;6277;49.824;9.562;2023-11-19T10:22:55;1.55;;;0.50;;
12425;SDS011;6277;49.824;9.562;2023-11-19T10:27:51;2.53;;;0.50;;
12425;SDS011;6277;49.824;9.562;2023-11-19T10:30:17;0.85;;;0.52;;
12425;SDS011;6277;49.824;9.562;2023-11-19T10:35:32;1.40;;;0.47;;
12425;SDS011;6277;49.824;9.562;2023-11-19T10:38:14;2.03;;;0.80;;
12425;SDS011;6277;49.824;9.562;2023-11-19T10:40:40;2.00;;;0.68;;
12425;SDS011;6277;49.824;9.562;2023-11-19T10:43:06;1.23;;;0.50;;
12425;SDS011;6277;49.824;9.562;2023-11-19T10:45:35;1.98;;;0.50;;
12425;SDS011;6277;49.824;9.562;2023-11-19T10:48:02;1.10;;;0.60;;
12425;SDS011;6277;49.824;9.562;2023-11-19T10:50:35;1.50;;;0.40;;
12425;SDS011;6277;49.824;9.562;2023-11-19T10:53:02;1.58;;;0.60;;
12425;SDS011;6277;49.824;9.562;2023-11-19T10:55:32;1.45;;;0.65;;
12425;SDS011;6277;49.824;9.562;2023-11-19T10:58:03;2.83;;;0.77;;
12425;SDS011;6277;49.824;9.562;2023-11-19T11:00:47;1.15;;;0.50;;
12425;SDS011;6277;49.824;9.562;2023-11-19T11:03:19;1.55;;;0.50;;
12425;SDS011;6277;49.824;9.562;2023-11-19T11:05:49;0.70;;;0.40;;
12425;SDS011;6277;49.824;9.562;2023-11-19T11:08:16;2.22;;;0.73;;
12425;SDS011;6277;49.824;9.562;2023-11-19T11:10:56;1.80;;;0.60;;
12425;SDS011;6277;49.824;9.562;2023-11-19T11:13:25;2.13;;;0.70;;
12425;SDS011;6277;49.824;9.562;2023-11-19T11:15:55;1.50;;;0.40;;
12425;SDS011;6277;49.824;9.562;2023-11-19T11:18:23;1.55;;;0.40;;
12425;SDS011;6277;49.824;9.562;2023-11-19T11:20:51;2.17;;;0.60;;
12425;SDS011;6277;49.824;9.562;2023-11-19T11:29:00;1.17;;;0.40;;
12425;SDS011;6277;49.824;9.562;2023-11-19T11:37:21;1.75;;;0.50;;
12425;SDS011;6277;49.824;9.562;2023-11-19T11:39:52;1.98;;;0.70;;
12425;SDS011;6277;49.824;9.562;2023-11-19T11:45:03;0.88;;;0.40;;
12425;SDS011;6277;49.824;9.562;2023-11-19T11:50:13;1.73;;;0.50;;
12425;SDS011;6277;49.824;9.562;2023-11-19T11:55:24;1.15;;;0.38;;
12425;SDS011;6277;49.824;9.562;2023-11-19T11:57:54;3.05;;;0.50;;
12425;SDS011;6277;49.824;9.562;2023-11-19T12:02:55;3.25;;;0.60;;
12425;SDS011;6277;49.824;9.562;2023-11-19T12:05:22;2.20;;;0.60;;
12425;SDS011;6277;49.824;9.562;2023-11-19T12:07:54;1.20;;;0.50;;
12425;SDS011;6277;49.824;9.562;2023-11-19T12:10:20;1.42;;;0.50;;
12425;SDS011;6277;49.824;9.562;2023-11-19T12:12:47;2.35;;;0.80;;
12425;SDS011;6277;49.824;9.562;2023-11-19T12:15:12;6.55;;;0.80;;
12425;SDS011;6277;49.824;9.562;2023-11-19T12:20:14;1.63;;;0.65;;
12425;SDS011;6277;49.824;9.562;2023-11-19T12:22:41;1.75;;;0.70;;
12425;SDS011;6277;49.824;9.562;2023-11-19T12:25:08;4.10;;;0.98;;
12425;SDS011;6277;49.824;9.562;2023-11-19T12:27:35;4.15;;;1.30;;
12425;SDS011;6277;49.824;9.562;2023-11-19T12:30:02;1.45;;;0.50;;
12425;SDS011;6277;49.824;9.562;2023-11-19T12:32:37;2.65;;;0.90;;
12425;SDS011;6277;49.824;9.562;2023-11-19T12:35:06;2.78;;;0.85;;
12425;SDS011;6277;49.824;9.562;2023-11-19T12:37:38;3.05;;;0.70;;
12425;SDS011;6277;49.824;9.562;2023-11-19T12:40:25;2.30;;;0.40;;
12425;SDS011;6277;49.824;9.562;2023-11-19T12:45:17;1.58;;;0.82;;
12425;SDS011;6277;49.824;9.562;2023-11-19T12:47:45;1.88;;;0.60;;
12425;SDS011;6277;49.824;9.562;2023-11-19T12:50:14;1.30;;;0.70;;
12425;SDS011;6277;49.824;9.562;2023-11-19T12:52:42;3.35;;;1.23;;
12425;SDS011;6277;49.824;9.562;2023-11-19T12:55:24;3.17;;;1.00;;
12425;SDS011;6277;49.824;9.562;2023-11-19T12:57:51;2.33;;;0.88;;
12425;SDS011;6277;49.824;9.562;2023-11-19T13:00:24;2.78;;;0.80;;
12425;SDS011;6277;49.824;9.562;2023-11-19T13:02:53;1.92;;;0.60;;
12425;SDS011;6277;49.824;9.562;2023-11-19T13:07:58;1.55;;;0.70;;
12425;SDS011;6277;49.824;9.562;2023-11-19T13:10:25;2.15;;;0.73;;
12425;SDS011;6277;49.824;9.562;2023-11-19T13:13:04;2.50;;;0.70;;
12425;SDS011;6277;49.824;9.562;2023-11-19T13:15:33;1.90;;;0.60;;
12425;SDS011;6277;49.824;9.562;2023-11-19T13:17:59;2.75;;;0.70;;
12425;SDS011;6277;49.824;9.562;2023-11-19T13:20:25;2.13;;;0.60;;
12425;SDS011;6277;49.824;9.562;2023-11-19T13:23:03;2.28;;;0.70;;
12425;SDS011;6277;49.824;9.562;2023-11-19T13:25:30;1.90;;;0.63;;
12425;SDS011;6277;49.824;9.562;2023-11-19T13:27:56;1.85;;;0.65;;
12425;SDS011;6277;49.824;9.562;2023-11-19T13:30:23;2.58;;;0.73;;
12425;SDS011;6277;49.824;9.562;2023-11-19T13:32:49;3.38;;;0.68;;
12425;SDS011;6277;49.824;9.562;2023-11-19T13:35:16;3.03;;;0.80;;
12425;SDS011;6277;49.824;9.562;2023-11-19T13:37:42;2.08;;;0.50;;
12425;SDS011;6277;49.824;9.562;2023-11-19T13:40:08;1.05;;;0.50;;
12425;SDS011;6277;49.824;9.562;2023-11-19T13:42:43;3.42;;;0.80;;
12425;SDS011;6277;49.824;9.562;2023-11-19T13:45:13;2.60;;;0.60;;
12425;SDS011;6277;49.824;9.562;2023-11-19T13:47:40;3.50;;;0.80;;
12425;SDS011;6277;49.824;9.562;2023-11-19T13:50:10;2.88;;;0.50;;
12425;SDS011;6277;49.824;9.562;2023-11-19T13:52:38;2.50;;;0.70;;
12425;SDS011;6277;49.824;9.562;2023-11-19T13:55:05;2.63;;;0.80;;
12425;SDS011;6277;49.824;9.562;2023-11-19T13:57:32;1.80;;;0.70;;
12425;SDS011;6277;49.824;9.562;2023-11-19T13:59:59;2.78;;;0.70;;
12425;SDS011;6277;49.824;9.562;2023-11-19T14:02:25;2.92;;;0.80;;
12425;SDS011;6277;49.824;9.562;2023-11-19T14:04:50;1.98;;;0.65;;
12425;SDS011;6277;49.824;9.562;2023-11-19T14:07:16;3.35;;;0.73;;
12425;SDS011;6277;49.824;9.562;2023-11-19T14:09:42;2.22;;;0.60;;
12425;SDS011;6277;49.824;9.562;2023-11-19T14:12:07;2.75;;;0.70;;
12425;SDS011;6277;49.824;9.562;2023-11-19T14:14:34;3.80;;;0.80;;
12425;SDS011;6277;49.824;9.562;2023-11-19T14:17:01;5.00;;;0.85;;
12425;SDS011;6277;49.824;9.562;2023-11-19T14:19:28;4.45;;;0.70;;
12425;SDS011;6277;49.824;9.562;2023-11-19T14:21:53;2.65;;;0.75;;
12425;SDS011;6277;49.824;9.562;2023-11-19T14:24:19;4.25;;;1.10;;
12425;SDS011;6277;49.824;9.562;2023-11-19T14:26:45;6.90;;;1.00;;
12425;SDS011;6277;49.824;9.562;2023-11-19T14:29:12;3.47;;;0.70;;
12425;SDS011;6277;49.824;9.562;2023-11-19T14:31:37;2.10;;;0.65;;
12425;SDS011;6277;49.824;9.562;2023-11-19T14:34:04;3.38;;;0.70;;
12425;SDS011;6277;49.824;9.562;2023-11-19T14:36:30;2.38;;;0.80;;
12425;SDS011;6277;49.824;9.562;2023-11-19T14:38:55;2.85;;;0.60;;
12425;SDS011;6277;49.824;9.562;2023-11-19T14:41:22;2.38;;;0.95;;
12425;SDS011;6277;49.824;9.562;2023-11-19T14:43:48;4.97;;;0.82;;
12425;SDS011;6277;49.824;9.562;2023-11-19T14:46:13;2.95;;;0.60;;
12425;SDS011;6277;49.824;9.562;2023-11-19T14:48:39;3.97;;;0.82;;
12425;SDS011;6277;49.824;9.562;2023-11-19T14:51:04;1.58;;;0.75;;
12425;SDS011;6277;49.824;9.562;2023-11-19T14:53:30;2.03;;;0.60;;
12425;SDS011;6277;49.824;9.562;2023-11-19T14:55:56;3.00;;;0.73;;
12425;SDS011;6277;49.824;9.562;2023-11-19T14:58:21;3.10;;;1.00;;
12425;SDS011;6277;49.824;9.562;2023-11-19T15:00:47;4.93;;;1.08;;
12425;SDS011;6277;49.824;9.562;2023-11-19T15:03:13;2.53;;;0.60;;
12425;SDS011;6277;49.824;9.562;2023-11-19T15:05:41;2.78;;;0.77;;
12425;SDS011;6277;49.824;9.562;2023-11-19T15:08:06;5.90;;;1.05;;
12425;SDS011;6277;49.824;9.562;2023-11-19T15:10:32;1.83;;;0.60;;
12425;SDS011;6277;49.824;9.562;2023-11-19T15:12:57;1.60;;;0.77;;
12425;SDS011;6277;49.824;9.562;2023-11-19T15:15:23;3.00;;;0.90;;
12425;SDS011;6277;49.824;9.562;2023-11-19T15:17:48;2.80;;;0.65;;
12425;SDS011;6277;49.824;9.562;2023-11-19T15:20:14;1.73;;;0.50;;
12425;SDS011;6277;49.824;9.562;2023-11-19T15:22:43;2.40;;;0.70;;
12425;SDS011;6277;49.824;9.562;2023-11-19T15:25:08;2.08;;;0.60;;
12425;SDS011;6277;49.824;9.562;2023-11-19T15:27:35;3.30;;;0.82;;
12425;SDS011;6277;49.824;9.562;2023-11-19T15:30:01;2.78;;;0.80;;
12425;SDS011;6277;49.824;9.562;2023-11-19T15:32:27;3.03;;;0.60;;
12425;SDS011;6277;49.824;9.562;2023-11-19T15:34:56;3.05;;;0.60;;
12425;SDS011;6277;49.824;9.562;2023-11-19T15:37:24;4.18;;;0.70;;